createdAt,value
2018-05-25T00:00:09.648Z,80.17
2018-05-25T00:03:12.162Z,80.12
2018-05-25T00:06:14.711Z,80.06
2018-05-25T00:09:17.262Z,80.24
2018-05-25T00:12:19.701Z,80.03
2018-05-25T00:15:22.175Z,79.95
2018-05-25T00:18:24.656Z,80.01
2018-05-25T00:21:27.152Z,80.05
2018-05-25T00:24:29.678Z,80.16
2018-05-25T00:27:32.141Z,80.41
2018-05-25T00:30:34.610Z,80.56
2018-05-25T00:33:37.116Z,80.51
2018-05-25T00:36:39.570Z,80.24
2018-05-25T00:39:42.191Z,79.91
2018-05-25T00:42:44.681Z,78.63
2018-05-25T00:45:47.147Z,76.51
2018-05-25T00:48:49.590Z,76.70
2018-05-25T00:51:52.082Z,75.22
2018-05-25T00:55:06.307Z,74.63
2018-05-25T00:58:08.758Z,72.38
2018-05-25T01:01:11.266Z,71.83
2018-05-25T01:04:13.705Z,70.66
2018-05-25T01:07:16.248Z,71.29
2018-05-25T01:10:18.773Z,70.97
2018-05-25T01:13:21.334Z,71.91
2018-05-25T01:16:23.896Z,71.86
2018-05-25T01:19:26.339Z,72.91
2018-05-25T01:22:28.918Z,72.58
2018-05-25T01:25:31.429Z,72.64
2018-05-25T01:28:33.873Z,74.39
2018-05-25T01:31:36.352Z,75.42
2018-05-25T01:34:38.812Z,76.43
2018-05-25T01:37:41.263Z,77.99
2018-05-25T01:40:43.716Z,77.64
2018-05-25T01:43:46.207Z,75.20
2018-05-25T01:46:48.686Z,75.07
2018-05-25T01:49:51.162Z,73.29
2018-05-25T01:52:53.833Z,72.94
2018-05-25T01:55:56.296Z,72.58
2018-05-25T01:58:58.774Z,73.05
2018-05-25T02:02:01.244Z,72.79
2018-05-25T02:05:03.733Z,72.96
2018-05-25T02:08:06.232Z,73.02
2018-05-25T02:11:08.805Z,73.21
2018-05-25T02:14:11.237Z,73.32
2018-05-25T02:17:13.756Z,73.21
2018-05-25T02:20:16.248Z,73.98
2018-05-25T02:23:18.750Z,74.56
2018-05-25T02:26:21.237Z,74.99
2018-05-25T02:29:23.662Z,75.32
2018-05-25T02:32:26.141Z,74.35
2018-05-25T02:35:28.757Z,74.61
2018-05-25T02:38:31.217Z,74.59
2018-05-25T02:41:33.653Z,74.79
2018-05-25T02:44:36.273Z,75.17
2018-05-25T02:47:38.759Z,75.63
2018-05-25T02:50:41.200Z,75.71
2018-05-25T02:53:43.666Z,75.57
2018-05-25T02:56:46.193Z,75.31
2018-05-25T02:59:48.664Z,74.34
2018-05-25T03:02:51.129Z,74.00
2018-05-25T03:05:53.628Z,74.06
2018-05-25T03:08:56.184Z,74.52
2018-05-25T03:11:58.754Z,73.93
2018-05-25T03:15:01.236Z,72.98
2018-05-25T03:18:03.701Z,73.17
2018-05-25T03:21:06.210Z,72.76
2018-05-25T03:24:08.771Z,72.06
2018-05-25T03:27:11.238Z,72.67
2018-05-25T03:30:13.903Z,71.94
2018-05-25T03:33:16.402Z,71.28
2018-05-25T03:36:18.873Z,72.23
2018-05-25T03:39:21.343Z,72.11
2018-05-25T03:42:23.797Z,72.78
2018-05-25T03:45:26.223Z,71.90
2018-05-25T03:48:28.763Z,71.90
2018-05-25T03:51:31.270Z,71.55
2018-05-25T03:54:33.721Z,70.14
2018-05-25T03:57:36.278Z,69.60
2018-05-25T04:00:50.399Z,70.97
2018-05-25T04:03:53.038Z,71.66
2018-05-25T04:06:55.468Z,72.21
2018-05-25T04:09:57.931Z,73.13
2018-05-25T04:13:00.372Z,72.18
2018-05-25T04:16:02.894Z,72.38
2018-05-25T04:19:05.399Z,73.21
2018-05-25T04:22:07.845Z,73.22
2018-05-25T04:25:10.393Z,73.14
2018-05-25T04:28:12.873Z,73.43
2018-05-25T04:31:16.263Z,74.23
2018-05-25T04:34:18.771Z,74.31
2018-05-25T04:37:21.254Z,72.77
2018-05-25T04:40:23.758Z,73.31
2018-05-25T04:43:26.286Z,70.99
2018-05-25T04:46:28.759Z,70.63
2018-05-25T04:49:31.246Z,70.48
2018-05-25T04:52:33.759Z,70.60
2018-05-25T04:55:36.330Z,71.66
2018-05-25T04:58:38.804Z,71.96
2018-05-25T05:01:41.334Z,70.61
2018-05-25T05:04:43.815Z,71.21
2018-05-25T05:07:46.301Z,69.75
2018-05-25T05:10:48.794Z,71.64
2018-05-25T05:13:51.231Z,71.97
2018-05-25T05:16:53.799Z,68.44
2018-05-25T05:19:56.334Z,71.06
2018-05-25T05:22:58.891Z,71.60
2018-05-25T05:26:01.331Z,70.91
2018-05-25T05:29:03.776Z,68.35
2018-05-25T05:32:06.264Z,67.78
2018-05-25T05:35:08.684Z,62.34
2018-05-25T05:38:11.261Z,61.94
2018-05-25T05:41:13.755Z,60.32
2018-05-25T05:44:16.296Z,55.57
2018-05-25T05:47:18.795Z,53.81
2018-05-25T05:50:21.271Z,51.99
2018-05-25T05:53:23.709Z,49.08
2018-05-25T05:56:26.211Z,52.17
2018-05-25T05:59:28.769Z,50.69
2018-05-25T06:02:31.251Z,46.94
2018-05-25T06:05:33.841Z,47.79
2018-05-25T06:08:36.341Z,47.26
2018-05-25T06:11:38.774Z,48.72
2018-05-25T06:14:41.265Z,50.36
2018-05-25T06:17:43.775Z,49.74
2018-05-25T06:20:46.321Z,49.15
2018-05-25T06:23:48.866Z,48.42
2018-05-25T06:26:51.470Z,46.80
2018-05-25T06:29:53.931Z,48.23
2018-05-25T06:32:56.412Z,44.77
2018-05-25T06:35:58.935Z,49.26
2018-05-25T06:39:01.392Z,51.24
2018-05-25T06:42:03.844Z,49.02
2018-05-25T06:45:06.310Z,46.61
2018-05-25T06:48:08.877Z,45.09
2018-05-25T06:51:11.437Z,45.54
2018-05-25T06:54:13.892Z,45.80
2018-05-25T06:57:16.546Z,48.51
2018-05-25T07:00:19.031Z,48.35
2018-05-25T07:03:21.470Z,52.49
2018-05-25T07:06:23.968Z,50.50
2018-05-25T07:09:26.413Z,51.57
2018-05-25T07:12:28.885Z,51.28
2018-05-25T07:15:31.354Z,50.11
2018-05-25T07:18:33.907Z,52.89
2018-05-25T07:21:36.372Z,53.78
2018-05-25T07:24:38.951Z,54.36
2018-05-25T07:27:41.480Z,56.07
2018-05-25T07:30:43.953Z,54.81
2018-05-25T07:33:46.419Z,52.91
2018-05-25T07:36:48.991Z,54.77
2018-05-25T07:39:51.453Z,51.56
2018-05-25T07:42:53.935Z,53.27
2018-05-25T07:45:56.413Z,54.84
2018-05-25T07:48:58.997Z,55.64
2018-05-25T07:52:01.502Z,55.71
2018-05-25T07:55:03.997Z,54.38
2018-05-25T07:58:06.466Z,54.34
2018-05-25T08:01:08.988Z,55.78
2018-05-25T08:04:11.511Z,55.60
2018-05-25T08:07:13.986Z,54.39
2018-05-25T08:10:16.543Z,54.44
2018-05-25T08:13:19.023Z,54.71
2018-05-25T08:16:21.485Z,54.68
2018-05-25T08:19:24.013Z,55.81
2018-05-25T08:22:26.465Z,56.59
2018-05-25T08:25:29.043Z,56.27
2018-05-25T08:28:31.503Z,56.09
2018-05-25T08:31:34.083Z,56.31
2018-05-25T08:34:39.422Z,55.70
2018-05-25T08:37:41.952Z,56.35
2018-05-25T08:40:44.443Z,54.71
2018-05-25T08:43:46.917Z,56.25
2018-05-25T08:46:49.401Z,56.73
2018-05-25T08:49:51.901Z,58.06
2018-05-25T08:52:54.462Z,57.42
2018-05-25T08:55:57.028Z,59.21
2018-05-25T08:58:59.618Z,57.64
2018-05-25T09:02:02.143Z,57.54
2018-05-25T09:05:04.634Z,57.22
2018-05-25T09:08:07.122Z,55.88
2018-05-25T09:11:09.621Z,56.64
2018-05-25T09:14:12.091Z,57.85
2018-05-25T09:17:14.611Z,57.06
2018-05-25T09:20:17.077Z,55.67
2018-05-25T09:23:19.602Z,54.22
2018-05-25T09:26:22.208Z,54.38
2018-05-25T09:29:24.708Z,54.60
2018-05-25T09:32:27.382Z,53.76
2018-05-25T09:35:29.879Z,54.10
2018-05-25T09:38:32.418Z,53.94
2018-05-25T09:41:34.890Z,53.74
2018-05-25T09:44:37.392Z,53.68
2018-05-25T09:47:39.861Z,56.65
2018-05-25T09:50:42.334Z,54.14
2018-05-25T09:53:44.823Z,52.75
2018-05-25T09:56:58.969Z,52.11
2018-05-25T10:00:01.493Z,51.60
2018-05-25T10:03:03.975Z,51.30
2018-05-25T10:06:06.455Z,53.37
2018-05-25T10:09:09.002Z,52.34
2018-05-25T10:12:11.539Z,52.85
2018-05-25T10:15:14.030Z,53.36
2018-05-25T10:18:16.558Z,52.56
2018-05-25T10:21:19.034Z,50.78
2018-05-25T10:24:21.517Z,51.18
2018-05-25T10:27:23.983Z,48.92
2018-05-25T10:30:26.500Z,48.46
2018-05-25T10:33:29.075Z,52.44
2018-05-25T10:36:31.575Z,52.05
2018-05-25T10:39:34.078Z,49.44
2018-05-25T10:42:36.552Z,49.86
2018-05-25T10:45:39.101Z,49.62
2018-05-25T10:48:41.548Z,49.25
2018-05-25T10:51:44.023Z,50.94
2018-05-25T10:54:46.482Z,51.09
2018-05-25T10:57:48.979Z,49.92
2018-05-25T11:00:51.448Z,51.35
2018-05-25T11:03:53.943Z,51.22
2018-05-25T11:06:56.429Z,50.36
2018-05-25T11:09:58.957Z,51.46
2018-05-25T11:13:01.445Z,51.18
2018-05-25T11:16:03.950Z,51.20
2018-05-25T11:19:06.445Z,50.60
2018-05-25T11:22:08.922Z,50.34
2018-05-25T11:25:11.498Z,49.37
2018-05-25T11:28:13.943Z,49.15
2018-05-25T11:31:16.459Z,48.89
2018-05-25T11:34:18.903Z,49.29
2018-05-25T11:37:21.462Z,47.73
2018-05-25T11:40:24.040Z,48.63
2018-05-25T11:43:26.498Z,48.66
2018-05-25T11:46:29.012Z,48.75
2018-05-25T11:49:31.534Z,49.56
2018-05-25T11:52:34.040Z,49.21
2018-05-25T11:55:36.499Z,50.40
2018-05-25T11:58:39.015Z,50.26
2018-05-25T12:01:41.499Z,51.74
2018-05-25T12:04:43.994Z,50.66
2018-05-25T12:07:46.457Z,50.71
2018-05-25T12:10:48.969Z,51.65
2018-05-25T12:13:51.542Z,52.34
2018-05-25T12:16:54.017Z,53.11
2018-05-25T12:19:56.505Z,50.11
2018-05-25T12:22:59.009Z,51.87
2018-05-25T12:26:01.491Z,49.98
2018-05-25T12:29:03.950Z,51.59
2018-05-25T12:32:06.460Z,52.11
2018-05-25T12:35:09.025Z,50.81
2018-05-25T12:38:11.545Z,51.62
2018-05-25T12:41:13.996Z,51.10
2018-05-25T12:44:16.503Z,50.01
2018-05-25T12:47:19.002Z,51.01
2018-05-25T12:50:21.486Z,50.04
2018-05-25T12:53:23.949Z,50.98
2018-05-25T12:56:26.424Z,50.32
2018-05-25T12:59:28.860Z,52.34
2018-05-25T13:02:31.416Z,51.49
2018-05-25T13:05:33.996Z,51.75
2018-05-25T13:08:36.480Z,51.92
2018-05-25T13:11:38.982Z,52.58
2018-05-25T13:14:41.439Z,52.65
2018-05-25T13:17:43.906Z,51.98
2018-05-25T13:20:46.518Z,50.52
2018-05-25T13:23:49.060Z,51.83
2018-05-25T13:26:51.595Z,51.49
2018-05-25T13:29:54.053Z,50.34
2018-05-25T13:32:56.628Z,51.14
2018-05-25T13:35:59.079Z,49.44
2018-05-25T13:39:01.611Z,50.34
2018-05-25T13:42:04.177Z,51.40
2018-05-25T13:45:06.684Z,51.71
2018-05-25T13:48:09.306Z,50.50
2018-05-25T13:51:11.721Z,51.33
2018-05-25T13:54:14.235Z,50.63
2018-05-25T13:57:16.733Z,51.75
2018-05-25T14:00:19.229Z,52.36
2018-05-25T14:03:21.733Z,51.31
2018-05-25T14:06:24.246Z,51.37
2018-05-25T14:09:26.745Z,50.01
2018-05-25T14:12:29.252Z,48.68
2018-05-25T14:15:31.727Z,50.15
2018-05-25T14:18:34.196Z,51.25
2018-05-25T14:21:36.698Z,50.98
2018-05-25T14:24:39.221Z,51.08
2018-05-25T14:27:41.773Z,50.62
2018-05-25T14:30:44.291Z,50.95
2018-05-25T14:33:46.822Z,49.43
2018-05-25T14:36:49.415Z,49.89
2018-05-25T14:39:51.951Z,50.55
2018-05-25T14:42:54.436Z,51.11
2018-05-25T14:45:56.972Z,48.03
2018-05-25T14:48:59.537Z,48.03
2018-05-25T14:52:02.040Z,49.15
2018-05-25T14:55:04.500Z,49.91
2018-05-25T14:58:07.043Z,47.28
2018-05-25T15:01:09.568Z,48.38
2018-05-25T15:04:12.152Z,48.64
2018-05-25T15:07:14.595Z,49.05
2018-05-25T15:10:17.172Z,49.96
2018-05-25T15:13:19.772Z,49.44
2018-05-25T15:16:22.281Z,49.84
2018-05-25T15:19:24.796Z,49.46
2018-05-25T15:22:27.312Z,50.43
2018-05-25T15:25:29.781Z,52.25
2018-05-25T15:28:32.285Z,49.81
2018-05-25T15:31:34.786Z,48.89
2018-05-25T15:34:37.377Z,49.08
2018-05-25T15:37:39.916Z,49.43
2018-05-25T15:40:42.361Z,50.27
2018-05-25T15:43:44.855Z,49.78
2018-05-25T15:46:47.337Z,49.98
2018-05-25T15:49:49.823Z,51.39
2018-05-25T15:52:52.365Z,53.81
2018-05-25T15:55:54.831Z,52.42
2018-05-25T15:58:57.334Z,53.69
2018-05-25T16:01:59.807Z,51.79
2018-05-25T16:05:02.281Z,54.00
2018-05-25T16:08:04.783Z,54.31
2018-05-25T16:11:07.287Z,52.10
2018-05-25T16:14:09.848Z,54.81
2018-05-25T16:17:12.319Z,55.11
2018-05-25T16:20:14.890Z,52.87
2018-05-25T16:23:17.352Z,53.27
2018-05-25T16:26:19.860Z,50.85
2018-05-25T16:29:22.374Z,49.56
2018-05-25T16:32:24.877Z,51.04
2018-05-25T16:35:27.390Z,52.61
2018-05-25T16:38:29.973Z,53.48
2018-05-25T16:41:32.453Z,53.27
2018-05-25T16:44:34.970Z,51.75
2018-05-25T16:47:37.503Z,51.69
2018-05-25T16:50:39.962Z,51.82
2018-05-25T16:53:42.542Z,49.27
2018-05-25T16:56:44.994Z,47.67
2018-05-25T16:59:47.597Z,47.83
2018-05-25T17:02:50.105Z,45.71
2018-05-25T17:05:52.731Z,44.20
2018-05-25T17:08:55.292Z,43.53
2018-05-25T17:11:57.819Z,43.64
2018-05-25T17:15:00.292Z,45.41
2018-05-25T17:18:02.787Z,46.56
2018-05-25T17:21:05.322Z,48.90
2018-05-25T17:24:07.789Z,49.08
2018-05-25T17:27:10.409Z,51.89
2018-05-25T17:30:12.894Z,53.03
2018-05-25T17:33:15.390Z,54.04
2018-05-25T17:36:17.886Z,54.87
2018-05-25T17:39:20.393Z,54.55
2018-05-25T17:42:22.927Z,54.13
2018-05-25T17:45:25.482Z,56.24
2018-05-25T17:48:28.063Z,56.57
2018-05-25T17:51:30.698Z,55.33
2018-05-25T17:54:33.192Z,54.80
2018-05-25T17:57:35.703Z,55.33
2018-05-25T18:00:38.180Z,55.95
2018-05-25T18:03:40.679Z,54.78
2018-05-25T18:06:43.253Z,54.67
2018-05-25T18:09:45.818Z,55.54
2018-05-25T18:12:48.348Z,56.19
2018-05-25T18:15:50.808Z,55.97
2018-05-25T18:18:53.323Z,55.47
2018-05-25T18:21:55.811Z,55.33
2018-05-25T18:24:58.328Z,55.08
2018-05-25T18:28:00.814Z,56.09
2018-05-25T18:31:03.343Z,56.29
2018-05-25T18:34:05.818Z,56.73
2018-05-25T18:37:08.370Z,55.07
2018-05-25T18:40:10.930Z,56.40
2018-05-25T18:43:13.464Z,55.90
2018-05-25T18:46:15.965Z,56.78
2018-05-25T18:49:18.473Z,56.12
2018-05-25T18:52:21.031Z,54.60
2018-05-25T18:55:23.580Z,56.65
2018-05-25T18:58:26.045Z,56.54
2018-05-25T19:01:28.603Z,56.07
2018-05-25T19:04:31.199Z,56.49
2018-05-25T19:07:33.689Z,55.94
2018-05-25T19:10:36.305Z,56.77
2018-05-25T19:13:38.927Z,57.29
2018-05-25T19:16:41.480Z,56.88
2018-05-25T19:19:44.029Z,56.99
2018-05-25T19:22:46.478Z,57.36
2018-05-25T19:25:48.980Z,57.17
2018-05-25T19:28:51.511Z,57.11
2018-05-25T19:31:54.018Z,57.13
2018-05-25T19:34:56.548Z,56.90
2018-05-25T19:37:59.066Z,58.28
2018-05-25T19:41:01.558Z,58.09
2018-05-25T19:44:04.120Z,58.59
2018-05-25T19:47:06.606Z,58.45
2018-05-25T19:50:09.170Z,58.54
2018-05-25T19:53:11.765Z,58.67
2018-05-25T19:56:14.205Z,58.90
2018-05-25T19:59:16.709Z,58.82
2018-05-25T20:02:19.207Z,59.02
2018-05-25T20:05:21.720Z,59.21
2018-05-25T20:08:24.289Z,59.30
2018-05-25T20:11:26.791Z,59.53
2018-05-25T20:14:29.411Z,58.73
2018-05-25T20:17:31.963Z,59.27
2018-05-25T20:20:34.507Z,59.69
2018-05-25T20:23:37.054Z,60.48
2018-05-25T20:26:39.540Z,60.56
2018-05-25T20:29:42.066Z,60.97
2018-05-25T20:32:44.573Z,61.23
2018-05-25T20:35:47.191Z,61.16
2018-05-25T20:38:49.707Z,61.10
2018-05-25T20:41:52.228Z,61.43
2018-05-25T20:44:54.874Z,61.41
2018-05-25T20:47:57.431Z,61.21
2018-05-25T20:51:00.041Z,61.31
2018-05-25T20:54:02.575Z,61.39
2018-05-25T20:57:05.240Z,61.43
2018-05-25T21:00:07.695Z,61.32
2018-05-25T21:03:10.365Z,61.02
2018-05-25T21:06:12.887Z,61.09
2018-05-25T21:09:15.384Z,61.37
2018-05-25T21:12:17.948Z,62.30
2018-05-25T21:15:20.440Z,62.92
2018-05-25T21:18:22.982Z,63.46
2018-05-25T21:21:25.526Z,63.39
2018-05-25T21:24:28.096Z,63.49
2018-05-25T21:27:30.587Z,63.60
2018-05-25T21:30:33.104Z,64.34
2018-05-25T21:36:44.391Z,65.22
2018-05-25T21:39:46.900Z,64.30
2018-05-25T21:42:49.429Z,64.30
2018-05-25T21:45:51.910Z,64.37
2018-05-25T21:48:54.535Z,64.58
2018-05-25T21:51:57.125Z,64.96
2018-05-25T21:54:59.661Z,64.35
2018-05-25T21:58:02.136Z,64.66
2018-05-25T22:01:04.676Z,65.70
2018-05-25T22:04:07.257Z,66.21
2018-05-25T22:07:09.799Z,66.57
2018-05-25T22:10:12.372Z,67.51
2018-05-25T22:13:14.857Z,68.14
2018-05-25T22:16:17.398Z,68.60
2018-05-25T22:19:19.968Z,68.76
2018-05-25T22:22:22.428Z,68.55
2018-05-25T22:25:24.986Z,68.81
2018-05-25T22:28:27.647Z,68.87
2018-05-25T22:31:30.159Z,66.46
2018-05-25T22:34:32.708Z,66.13
2018-05-25T22:37:35.257Z,67.55
2018-05-25T22:40:37.794Z,66.48
2018-05-25T22:43:52.053Z,65.86
2018-05-25T22:47:06.277Z,66.59
2018-05-25T22:50:20.590Z,66.35
2018-05-25T22:53:28.032Z,64.66
2018-05-25T22:56:30.523Z,61.67
2018-05-25T22:59:33.022Z,60.35
2018-05-25T23:02:35.521Z,60.23
2018-05-25T23:05:37.986Z,59.57
2018-05-25T23:08:40.463Z,57.90
2018-05-25T23:11:42.975Z,57.50
2018-05-25T23:14:45.526Z,57.45
2018-05-25T23:17:48.058Z,57.10
2018-05-25T23:20:50.524Z,57.08
2018-05-25T23:23:53.067Z,56.68
2018-05-25T23:26:55.527Z,57.25
2018-05-25T23:29:58.012Z,57.56
2018-05-25T23:33:00.507Z,57.40
2018-05-25T23:36:03.017Z,56.93
2018-05-25T23:39:05.508Z,57.01
2018-05-25T23:42:07.988Z,57.37
2018-05-25T23:45:10.438Z,57.44
2018-05-25T23:48:12.917Z,56.68
2018-05-25T23:51:15.421Z,57.13
2018-05-25T23:54:17.920Z,56.29
2018-05-25T23:57:20.464Z,56.63
